createdAt,value
2018-09-28T00:01:51.820Z,14.20
2018-09-28T00:04:19.175Z,13.80
2018-09-28T00:06:46.863Z,14.90
2018-09-28T00:09:14.174Z,15.23
2018-09-28T00:11:41.539Z,16.77
2018-09-28T00:14:09.036Z,16.60
2018-09-28T00:16:36.336Z,15.80
2018-09-28T00:19:03.695Z,17.13
2018-09-28T00:21:31.009Z,15.07
2018-09-28T00:23:58.306Z,16.07
2018-09-28T00:26:25.659Z,14.90
2018-09-28T00:28:52.985Z,14.90
2018-09-28T00:31:20.405Z,18.17
2018-09-28T00:33:47.699Z,16.17
2018-09-28T00:36:15.223Z,16.70
2018-09-28T00:38:42.539Z,14.97
2018-09-28T00:41:09.864Z,14.30
2018-09-28T00:43:37.164Z,13.43
2018-09-28T00:46:04.543Z,15.67
2018-09-28T00:48:31.871Z,13.00
2018-09-28T00:50:59.197Z,15.33
2018-09-28T00:53:26.493Z,16.20
2018-09-28T00:55:53.811Z,16.30
2018-09-28T00:58:21.104Z,15.57
2018-09-28T01:00:48.619Z,19.07
2018-09-28T01:03:15.933Z,16.80
2018-09-28T01:05:43.391Z,16.17
2018-09-28T01:08:10.716Z,20.57
2018-09-28T01:10:38.023Z,17.57
2018-09-28T01:13:05.470Z,21.50
2018-09-28T01:15:32.774Z,18.43
2018-09-28T01:18:00.192Z,17.93
2018-09-28T01:20:27.560Z,17.33
2018-09-28T01:22:54.876Z,17.13
2018-09-28T01:25:22.219Z,17.87
2018-09-28T01:27:49.531Z,16.40
2018-09-28T01:30:16.911Z,16.67
2018-09-28T01:32:44.247Z,17.10
2018-09-28T01:35:11.587Z,17.70
2018-09-28T01:37:38.875Z,15.87
2018-09-28T01:40:06.214Z,20.17
2018-09-28T01:42:33.504Z,16.67
2018-09-28T01:45:00.813Z,17.40
2018-09-28T01:47:28.130Z,17.77
2018-09-28T01:49:55.405Z,21.33
2018-09-28T01:52:22.792Z,19.87
2018-09-28T01:54:50.088Z,18.37
2018-09-28T01:57:17.379Z,18.70
2018-09-28T01:59:44.791Z,20.37
2018-09-28T02:02:12.099Z,19.60
2018-09-28T02:04:39.589Z,18.83
2018-09-28T02:07:06.939Z,17.83
2018-09-28T02:09:34.227Z,18.57
2018-09-28T02:12:01.584Z,18.47
2018-09-28T02:14:29.076Z,16.37
2018-09-28T02:16:56.390Z,16.70
2018-09-28T02:19:23.691Z,20.43
2018-09-28T02:21:51.015Z,17.47
2018-09-28T02:24:18.338Z,17.17
2018-09-28T02:26:45.675Z,16.77
2018-09-28T02:29:12.985Z,18.77
2018-09-28T02:31:44.768Z,20.80
2018-09-28T02:37:27.884Z,15.87
2018-09-28T02:39:55.268Z,17.43
2018-09-28T02:42:22.850Z,18.80
2018-09-28T02:44:50.155Z,16.23
2018-09-28T02:47:17.505Z,16.40
2018-09-28T02:49:44.854Z,18.57
2018-09-28T02:52:12.164Z,14.80
2018-09-28T02:54:39.468Z,15.90
2018-09-28T02:57:06.845Z,18.20
2018-09-28T02:59:34.121Z,16.00
2018-09-28T03:02:01.795Z,17.23
2018-09-28T03:04:29.123Z,15.97
2018-09-28T03:06:56.423Z,18.17
2018-09-28T03:09:23.780Z,21.30
2018-09-28T03:11:51.172Z,19.00
2018-09-28T03:14:18.501Z,21.47
2018-09-28T03:16:45.807Z,17.40
2018-09-28T03:19:13.117Z,18.60
2018-09-28T03:21:40.442Z,19.27
2018-09-28T03:24:07.823Z,18.33
2018-09-28T03:26:35.340Z,14.67
2018-09-28T03:29:02.661Z,18.67
2018-09-28T03:31:30.039Z,16.17
2018-09-28T03:33:57.388Z,19.03
2018-09-28T03:36:24.691Z,18.17
2018-09-28T03:38:52.003Z,17.03
2018-09-28T03:41:19.363Z,22.27
2018-09-28T03:43:46.679Z,17.63
2018-09-28T03:46:13.979Z,19.73
2018-09-28T03:48:41.300Z,18.30
2018-09-28T03:51:08.590Z,19.40
2018-09-28T03:53:35.912Z,20.30
2018-09-28T03:56:03.247Z,19.53
2018-09-28T03:58:30.577Z,17.43
2018-09-28T04:00:57.876Z,19.83
2018-09-28T04:03:25.200Z,20.27
2018-09-28T04:05:52.540Z,18.43
2018-09-28T04:08:19.913Z,20.50
2018-09-28T04:10:47.215Z,19.20
2018-09-28T04:13:14.519Z,18.80
2018-09-28T04:15:41.819Z,20.00
2018-09-28T04:18:09.116Z,19.87
2018-09-28T04:20:36.443Z,20.83
2018-09-28T04:23:03.806Z,18.97
2018-09-28T04:25:31.099Z,19.30
2018-09-28T04:27:58.418Z,20.47
2018-09-28T04:30:25.739Z,21.97
2018-09-28T04:32:53.066Z,20.77
2018-09-28T04:35:20.362Z,22.47
2018-09-28T04:37:47.911Z,20.93
2018-09-28T04:40:15.223Z,18.47
2018-09-28T04:42:42.522Z,19.87
2018-09-28T04:45:09.861Z,18.93
2018-09-28T04:47:37.158Z,21.60
2018-09-28T04:50:04.554Z,19.53
2018-09-28T04:52:31.848Z,21.37
2018-09-28T04:54:59.175Z,22.27
2018-09-28T04:57:26.499Z,20.80
2018-09-28T04:59:53.831Z,23.53
2018-09-28T05:02:21.165Z,23.83
2018-09-28T05:04:48.485Z,20.57
2018-09-28T05:07:15.886Z,20.43
2018-09-28T05:09:43.201Z,23.70
2018-09-28T05:12:10.530Z,22.57
2018-09-28T05:14:37.848Z,23.60
2018-09-28T05:17:05.348Z,22.80
2018-09-28T05:19:32.785Z,29.27
2018-09-28T05:22:00.080Z,21.07
2018-09-28T05:24:27.426Z,24.33
2018-09-28T05:26:54.764Z,24.43
2018-09-28T05:29:22.147Z,22.60
2018-09-28T05:31:49.623Z,22.83
2018-09-28T05:34:16.887Z,22.67
2018-09-28T05:36:44.307Z,22.63
2018-09-28T05:39:11.656Z,22.03
2018-09-28T05:41:38.997Z,24.27
2018-09-28T05:44:06.599Z,24.30
2018-09-28T05:46:34.062Z,19.13
2018-09-28T05:49:01.512Z,18.00
2018-09-28T05:51:28.916Z,22.07
2018-09-28T05:53:56.268Z,21.37
2018-09-28T05:56:23.603Z,20.93
2018-09-28T05:58:56.668Z,22.77
2018-09-28T06:01:29.964Z,21.90
2018-09-28T06:04:02.896Z,19.70
2018-09-28T06:06:30.260Z,19.77
2018-09-28T06:08:57.654Z,19.20
2018-09-28T06:11:25.003Z,21.30
2018-09-28T06:13:52.339Z,17.07
2018-09-28T06:16:19.949Z,21.63
2018-09-28T06:18:47.271Z,21.50
2018-09-28T06:21:14.646Z,18.83
2018-09-28T06:23:41.970Z,17.87
2018-09-28T06:26:09.314Z,16.13
2018-09-28T06:28:36.615Z,15.27
2018-09-28T06:31:03.926Z,13.13
2018-09-28T06:33:31.309Z,12.53
2018-09-28T06:35:58.640Z,11.40
2018-09-28T06:38:25.935Z,8.30
2018-09-28T06:40:53.281Z,8.30
2018-09-28T06:43:20.599Z,5.13
2018-09-28T06:45:47.946Z,5.90
2018-09-28T06:48:15.381Z,6.73
2018-09-28T06:50:42.680Z,7.20
2018-09-28T06:53:10.132Z,10.37
2018-09-28T06:55:37.479Z,5.23
2018-09-28T06:58:04.876Z,7.97
2018-09-28T07:00:32.195Z,10.90
2018-09-28T07:02:59.512Z,8.17
2018-09-28T07:05:26.848Z,7.20
2018-09-28T07:07:54.138Z,8.63
2018-09-28T07:10:21.441Z,5.97
2018-09-28T07:12:48.772Z,8.30
2018-09-28T07:15:16.084Z,5.93
2018-09-28T07:17:43.431Z,6.70
2018-09-28T07:20:10.802Z,8.73
2018-09-28T07:22:38.088Z,7.83
2018-09-28T07:25:05.451Z,8.63
2018-09-28T07:27:32.743Z,8.37
2018-09-28T07:30:00.094Z,6.23
2018-09-28T07:32:27.384Z,6.37
2018-09-28T07:34:54.696Z,9.13
2018-09-28T07:37:22.055Z,10.90
2018-09-28T07:39:49.371Z,6.70
2018-09-28T07:42:16.732Z,8.03
2018-09-28T07:44:44.014Z,6.87
2018-09-28T07:47:11.311Z,7.10
2018-09-28T07:49:38.714Z,8.50
2018-09-28T07:52:06.049Z,9.67
2018-09-28T07:54:33.393Z,11.73
2018-09-28T07:57:00.737Z,10.13
2018-09-28T07:59:28.052Z,9.60
2018-09-28T08:01:55.370Z,9.40
2018-09-28T08:04:22.724Z,8.87
2018-09-28T08:06:50.040Z,6.00
2018-09-28T08:09:17.372Z,10.30
2018-09-28T08:11:44.701Z,8.97
2018-09-28T08:14:12.828Z,8.33
2018-09-28T08:16:40.147Z,7.00
2018-09-28T08:19:07.760Z,6.47
2018-09-28T08:21:35.199Z,7.87
2018-09-28T08:24:02.519Z,13.10
2018-09-28T08:26:29.853Z,9.07
2018-09-28T08:28:57.199Z,12.30
2018-09-28T08:31:24.525Z,7.27
2018-09-28T08:33:51.818Z,12.47
2018-09-28T08:36:19.225Z,12.90
2018-09-28T08:38:46.488Z,11.33
2018-09-28T08:41:13.815Z,16.60
2018-09-28T08:43:41.173Z,8.73
2018-09-28T08:46:08.508Z,9.67
2018-09-28T08:48:35.800Z,13.10
2018-09-28T08:51:03.158Z,7.60
2018-09-28T08:53:30.693Z,8.90
2018-09-28T08:55:58.021Z,8.87
2018-09-28T08:58:25.360Z,9.40
2018-09-28T09:00:52.695Z,9.43
2018-09-28T09:03:20.009Z,9.50
2018-09-28T09:05:47.363Z,9.20
2018-09-28T09:08:14.685Z,9.77
2018-09-28T09:10:42.033Z,15.23
2018-09-28T09:13:09.357Z,10.17
2018-09-28T09:15:36.679Z,11.67
2018-09-28T09:18:04.117Z,14.10
2018-09-28T09:20:31.371Z,6.33
2018-09-28T09:22:58.654Z,11.80
2018-09-28T09:25:25.971Z,10.73
2018-09-28T09:27:53.294Z,12.67
2018-09-28T09:30:20.644Z,7.77
2018-09-28T09:32:48.208Z,9.50
2018-09-28T09:35:15.536Z,7.60
2018-09-28T09:37:42.836Z,6.20
2018-09-28T09:40:10.139Z,12.70
2018-09-28T09:42:37.522Z,9.93
2018-09-28T09:45:04.847Z,11.83
2018-09-28T09:47:32.148Z,9.03
2018-09-28T09:49:59.465Z,8.90
2018-09-28T09:52:26.788Z,8.07
2018-09-28T09:54:54.058Z,7.40
2018-09-28T09:57:21.371Z,11.23
2018-09-28T09:59:48.673Z,9.87
2018-09-28T10:02:21.786Z,11.43
2018-09-28T10:04:49.104Z,12.53
2018-09-28T10:07:16.397Z,9.43
2018-09-28T10:09:43.796Z,9.90
2018-09-28T10:12:11.136Z,6.90
2018-09-28T10:14:38.639Z,11.20
2018-09-28T10:17:06.189Z,10.90
2018-09-28T10:19:34.075Z,7.63
2018-09-28T10:22:01.530Z,9.60
2018-09-28T10:24:28.915Z,10.87
2018-09-28T10:26:56.278Z,6.80
2018-09-28T10:29:23.700Z,7.13
2018-09-28T10:31:51.085Z,9.07
2018-09-28T10:34:18.760Z,9.33
2018-09-28T10:36:46.126Z,9.30
2018-09-28T10:39:13.519Z,4.90
2018-09-28T10:41:40.864Z,6.43
2018-09-28T10:44:13.962Z,5.60
2018-09-28T10:46:41.405Z,4.97
2018-09-28T10:49:08.717Z,6.20
2018-09-28T10:51:36.069Z,8.17
2018-09-28T10:54:03.397Z,5.93
2018-09-28T10:56:30.983Z,7.73
2018-09-28T10:58:58.403Z,6.97
2018-09-28T11:01:25.718Z,5.03
2018-09-28T11:03:53.052Z,6.43
2018-09-28T11:06:20.764Z,7.90
2018-09-28T11:08:48.157Z,7.63
2018-09-28T11:11:15.512Z,7.07
2018-09-28T11:13:43.015Z,5.00
2018-09-28T11:16:10.607Z,9.03
2018-09-28T11:18:38.038Z,4.47
2018-09-28T11:21:05.528Z,7.23
2018-09-28T11:23:32.880Z,8.07
2018-09-28T11:26:00.210Z,6.40
2018-09-28T11:28:27.604Z,7.83
2018-09-28T11:30:54.957Z,7.87
2018-09-28T11:33:22.495Z,5.37
2018-09-28T11:35:49.829Z,5.83
2018-09-28T11:38:17.413Z,8.10
2018-09-28T11:40:44.731Z,5.07
2018-09-28T11:43:12.101Z,8.63
2018-09-28T11:45:39.708Z,6.77
2018-09-28T11:48:07.145Z,7.83
2018-09-28T11:50:34.792Z,5.27
2018-09-28T11:53:02.119Z,3.93
2018-09-28T11:55:29.416Z,7.33
2018-09-28T11:57:56.761Z,9.27
2018-09-28T12:00:24.088Z,6.70
2018-09-28T12:02:51.916Z,9.13
2018-09-28T12:05:19.273Z,4.77
2018-09-28T12:07:46.803Z,5.73
2018-09-28T12:10:14.220Z,6.10
2018-09-28T12:12:41.600Z,7.00
2018-09-28T12:15:08.898Z,6.60
2018-09-28T12:17:36.469Z,5.27
2018-09-28T12:20:05.014Z,7.30
2018-09-28T12:22:32.344Z,5.80
2018-09-28T12:24:59.725Z,9.27
2018-09-28T12:27:27.235Z,5.87
2018-09-28T12:29:54.427Z,4.37
2018-09-28T12:32:21.747Z,5.00
2018-09-28T12:34:49.180Z,7.77
2018-09-28T12:37:16.545Z,3.07
2018-09-28T12:39:43.997Z,7.47
2018-09-28T12:42:11.264Z,4.57
2018-09-28T12:44:38.665Z,6.07
2018-09-28T12:47:06.133Z,4.50
2018-09-28T12:49:33.612Z,2.90
2018-09-28T12:52:01.185Z,2.93
2018-09-28T12:54:28.772Z,9.00
2018-09-28T12:56:56.106Z,4.57
2018-09-28T12:59:23.509Z,5.63
2018-09-28T13:01:50.911Z,4.17
2018-09-28T13:04:18.908Z,3.53
2018-09-28T13:06:47.948Z,3.90
2018-09-28T13:09:15.288Z,6.00
2018-09-28T13:11:42.674Z,7.40
2018-09-28T13:14:10.242Z,6.60
2018-09-28T13:16:37.633Z,3.17
2018-09-28T13:19:05.352Z,6.87
2018-09-28T13:21:32.687Z,5.20
2018-09-28T13:24:00.054Z,4.77
2018-09-28T13:26:27.706Z,5.07
2018-09-28T13:28:54.922Z,4.70
2018-09-28T13:31:22.554Z,5.93
2018-09-28T13:33:50.013Z,3.97
2018-09-28T13:36:17.495Z,6.73
2018-09-28T13:38:45.015Z,4.50
2018-09-28T13:41:12.195Z,3.80
2018-09-28T13:43:39.639Z,4.70
2018-09-28T13:46:07.259Z,3.37
2018-09-28T13:48:34.651Z,6.07
2018-09-28T13:51:02.200Z,3.33
2018-09-28T13:53:29.566Z,4.17
2018-09-28T13:55:56.948Z,3.83
2018-09-28T13:58:24.622Z,4.63
2018-09-28T14:00:51.992Z,6.30
2018-09-28T14:03:19.480Z,4.13
2018-09-28T14:05:46.788Z,2.50
2018-09-28T14:08:14.140Z,4.67
2018-09-28T14:10:41.659Z,4.97
2018-09-28T14:13:08.980Z,4.07
2018-09-28T14:15:36.303Z,4.00
2018-09-28T14:18:04.224Z,4.23
2018-09-28T14:20:31.553Z,4.40
2018-09-28T14:22:58.863Z,2.40
2018-09-28T14:25:26.407Z,7.97
2018-09-28T14:27:53.801Z,5.43
2018-09-28T14:30:21.153Z,6.83
2018-09-28T14:32:48.715Z,4.67
2018-09-28T14:35:16.068Z,3.47
2018-09-28T14:37:43.443Z,4.40
2018-09-28T14:40:10.840Z,4.40
2018-09-28T14:42:38.617Z,2.70
2018-09-28T14:45:06.146Z,4.10
2018-09-28T14:47:33.654Z,5.30
2018-09-28T14:50:01.027Z,6.33
2018-09-28T14:52:28.600Z,6.23
2018-09-28T14:54:56.096Z,4.60
2018-09-28T14:57:23.405Z,4.57
2018-09-28T14:59:50.703Z,3.03
2018-09-28T15:02:18.210Z,3.80
2018-09-28T15:04:45.763Z,4.90
2018-09-28T15:07:13.081Z,3.67
2018-09-28T15:09:40.825Z,3.87
2018-09-28T15:12:08.179Z,5.20
2018-09-28T15:14:35.501Z,2.80
2018-09-28T15:17:02.979Z,6.17
2018-09-28T15:19:30.320Z,3.47
2018-09-28T15:21:57.619Z,3.57
2018-09-28T15:24:25.093Z,3.57
2018-09-28T15:26:52.399Z,5.93
2018-09-28T15:29:19.740Z,3.50
2018-09-28T15:31:47.222Z,4.60
2018-09-28T15:34:14.668Z,6.90
2018-09-28T15:36:41.997Z,4.43
2018-09-28T15:39:11.041Z,2.37
2018-09-28T15:41:38.436Z,4.50
2018-09-28T15:44:06.035Z,5.40
2018-09-28T15:46:34.039Z,4.33
2018-09-28T15:49:01.363Z,5.27
2018-09-28T15:51:28.668Z,4.40
2018-09-28T15:53:56.103Z,4.57
2018-09-28T15:56:23.423Z,3.73
2018-09-28T15:58:50.723Z,3.77
2018-09-28T16:01:18.145Z,4.27
2018-09-28T16:03:45.499Z,6.73
2018-09-28T16:06:13.025Z,4.43
2018-09-28T16:08:40.353Z,5.50
2018-09-28T16:11:07.672Z,5.53
2018-09-28T16:13:34.984Z,5.93
2018-09-28T16:16:02.652Z,3.50
2018-09-28T16:18:29.991Z,6.77
2018-09-28T16:20:57.340Z,5.47
2018-09-28T16:23:24.892Z,4.13
2018-09-28T16:25:52.214Z,5.73
2018-09-28T16:28:19.536Z,5.47
2018-09-28T16:30:46.888Z,4.40
2018-09-28T16:33:14.241Z,8.67
2018-09-28T16:35:41.584Z,4.53
2018-09-28T16:38:09.035Z,4.03
2018-09-28T16:40:36.347Z,4.33
2018-09-28T16:43:03.685Z,4.27
2018-09-28T16:45:31.028Z,3.07
2018-09-28T16:47:58.391Z,4.93
2018-09-28T16:50:25.703Z,3.60
2018-09-28T16:52:53.039Z,5.23
2018-09-28T16:55:20.604Z,5.83
2018-09-28T16:57:48.027Z,7.23
2018-09-28T17:00:15.668Z,3.13
2018-09-28T17:02:42.963Z,3.87
2018-09-28T17:05:10.336Z,3.37
2018-09-28T17:07:37.692Z,5.50
2018-09-28T17:10:05.090Z,6.90
2018-09-28T17:12:32.461Z,5.13
2018-09-28T17:14:59.790Z,8.53
2018-09-28T17:17:27.190Z,5.23
2018-09-28T17:19:54.553Z,5.90
2018-09-28T17:22:22.058Z,4.93
2018-09-28T17:24:49.557Z,4.13
2018-09-28T17:27:16.859Z,5.80
2018-09-28T17:29:44.202Z,3.23
2018-09-28T17:32:11.555Z,2.97
2018-09-28T17:34:38.868Z,4.60
2018-09-28T17:37:06.472Z,4.87
2018-09-28T17:39:33.808Z,5.67
2018-09-28T17:42:01.154Z,5.50
2018-09-28T17:44:28.484Z,9.13
2018-09-28T17:46:55.818Z,4.73
2018-09-28T17:49:23.139Z,7.53
2018-09-28T17:51:50.461Z,7.40
2018-09-28T17:54:17.767Z,5.03
2018-09-28T17:56:45.101Z,4.57
2018-09-28T17:59:12.485Z,4.40
2018-09-28T18:01:40.052Z,4.77
2018-09-28T18:04:07.666Z,4.93
2018-09-28T18:06:35.047Z,4.77
2018-09-28T18:09:02.975Z,5.97
2018-09-28T18:11:30.592Z,4.57
2018-09-28T18:13:57.917Z,6.40
2018-09-28T18:16:25.231Z,9.47
2018-09-28T18:18:52.556Z,5.30
2018-09-28T18:21:19.953Z,5.77
2018-09-28T18:23:47.271Z,4.93
2018-09-28T18:26:14.622Z,6.50
2018-09-28T18:28:41.964Z,4.10
2018-09-28T18:31:09.261Z,4.47
2018-09-28T18:33:37.714Z,5.87
2018-09-28T18:36:05.065Z,5.30
2018-09-28T18:38:32.613Z,6.10
2018-09-28T18:41:00.042Z,4.63
2018-09-28T18:43:27.453Z,4.07
2018-09-28T18:45:54.987Z,4.87
2018-09-28T18:48:23.094Z,4.53
2018-09-28T18:50:50.404Z,3.60
2018-09-28T18:53:17.832Z,4.67
2018-09-28T18:55:51.952Z,4.97
2018-09-28T18:58:19.330Z,5.07
2018-09-28T19:00:46.659Z,5.33
2018-09-28T19:03:20.956Z,3.93
2018-09-28T19:05:48.415Z,2.87
2018-09-28T19:08:15.885Z,5.27
2018-09-28T19:10:43.660Z,5.10
2018-09-28T19:13:11.037Z,4.23
2018-09-28T19:15:38.624Z,2.57
2018-09-28T19:18:05.994Z,4.60
2018-09-28T19:20:33.377Z,4.73
2018-09-28T19:23:00.872Z,3.93
2018-09-28T19:25:28.191Z,3.83
2018-09-28T19:27:55.730Z,4.37
2018-09-28T19:30:23.097Z,5.17
2018-09-28T19:32:50.423Z,6.00
2018-09-28T19:35:17.791Z,5.23
2018-09-28T19:37:45.407Z,5.03
2018-09-28T19:40:12.733Z,7.03
2018-09-28T19:42:40.064Z,3.70
2018-09-28T19:45:07.431Z,4.03
2018-09-28T19:47:34.780Z,4.10
2018-09-28T19:50:02.141Z,4.87
2018-09-28T19:52:29.502Z,5.50
2018-09-28T19:54:56.832Z,6.23
2018-09-28T19:57:24.358Z,4.70
2018-09-28T19:59:51.905Z,4.07
2018-09-28T20:02:19.263Z,7.83
2018-09-28T20:04:46.575Z,7.30
2018-09-28T20:07:13.951Z,4.40
2018-09-28T20:09:41.288Z,5.37
2018-09-28T20:12:08.624Z,6.23
2018-09-28T20:14:35.929Z,6.13
2018-09-28T20:17:03.266Z,5.53
2018-09-28T20:19:30.836Z,3.37
2018-09-28T20:21:58.292Z,5.30
2018-09-28T20:24:25.651Z,2.73
2018-09-28T20:26:52.999Z,7.00
2018-09-28T20:29:20.322Z,3.10
2018-09-28T20:31:47.716Z,4.90
2018-09-28T20:34:15.080Z,4.20
2018-09-28T20:36:42.451Z,4.47
2018-09-28T20:39:11.528Z,5.20
2018-09-28T20:41:38.872Z,3.90
2018-09-28T20:44:06.300Z,6.57
2018-09-28T20:46:34.100Z,8.70
2018-09-28T20:49:01.463Z,5.93
2018-09-28T20:51:28.917Z,6.43
2018-09-28T20:53:56.239Z,6.33
2018-09-28T20:56:23.577Z,3.50
2018-09-28T20:58:50.895Z,5.73
2018-09-28T21:01:18.254Z,5.70
2018-09-28T21:03:45.627Z,5.00
2018-09-28T21:06:12.988Z,6.57
2018-09-28T21:08:40.396Z,3.37
2018-09-28T21:11:07.791Z,4.67
2018-09-28T21:13:35.182Z,3.17
2018-09-28T21:16:02.479Z,5.63
2018-09-28T21:18:29.777Z,5.63
2018-09-28T21:21:45.361Z,3.80
2018-09-28T21:24:13.914Z,6.97
2018-09-28T21:26:41.294Z,3.70
2018-09-28T21:29:08.911Z,5.03
2018-09-28T21:31:36.390Z,4.77
2018-09-28T21:34:03.878Z,5.67
2018-09-28T21:36:31.192Z,6.57
2018-09-28T21:38:58.745Z,8.50
2018-09-28T21:41:26.079Z,6.23
2018-09-28T21:43:53.356Z,4.83
2018-09-28T21:46:20.869Z,6.77
2018-09-28T21:48:48.209Z,7.03
2018-09-28T21:51:15.536Z,6.23
2018-09-28T21:53:43.934Z,4.70
2018-09-28T21:56:11.927Z,4.30
2018-09-28T21:58:39.376Z,5.33
2018-09-28T22:01:06.747Z,8.13
2018-09-28T22:03:34.366Z,9.47
2018-09-28T22:06:01.676Z,4.53
2018-09-28T22:08:28.981Z,6.57
2018-09-28T22:10:56.341Z,7.90
2018-09-28T22:13:23.720Z,9.00
2018-09-28T22:15:51.828Z,9.17
2018-09-28T22:18:19.822Z,7.90
2018-09-28T22:20:47.120Z,8.37
2018-09-28T22:23:14.406Z,6.70
2018-09-28T22:25:41.723Z,6.00
2018-09-28T22:28:09.019Z,6.70
2018-09-28T22:30:36.344Z,5.67
2018-09-28T22:33:03.649Z,4.80
2018-09-28T22:35:31.060Z,6.37
2018-09-28T22:37:58.412Z,5.77
2018-09-28T22:40:25.834Z,7.13
2018-09-28T22:42:53.204Z,6.30
2018-09-28T22:45:20.508Z,10.97
2018-09-28T22:47:47.820Z,7.43
2018-09-28T22:50:15.156Z,6.33
2018-09-28T22:52:42.459Z,6.13
2018-09-28T22:55:10.092Z,7.27
2018-09-28T22:57:37.437Z,8.80
2018-09-28T23:00:11.752Z,7.63
2018-09-28T23:02:39.216Z,5.00
2018-09-28T23:05:07.080Z,5.33
2018-09-28T23:07:34.436Z,4.80
2018-09-28T23:10:01.790Z,6.10
2018-09-28T23:12:29.124Z,3.20
2018-09-28T23:17:59.077Z,5.70
2018-09-28T23:20:26.509Z,3.00
2018-09-28T23:22:53.874Z,4.10
2018-09-28T23:25:21.149Z,3.70
2018-09-28T23:27:48.453Z,3.30
2018-09-28T23:30:15.817Z,3.97
2018-09-28T23:32:43.113Z,3.73
2018-09-28T23:35:10.417Z,4.30
2018-09-28T23:37:37.708Z,4.70
2018-09-28T23:40:05.204Z,4.30
2018-09-28T23:42:32.493Z,6.23
2018-09-28T23:44:59.944Z,3.93
2018-09-28T23:47:27.309Z,3.43
2018-09-28T23:49:54.557Z,4.17
2018-09-28T23:52:21.845Z,4.27
2018-09-28T23:54:50.145Z,3.33
2018-09-28T23:57:17.440Z,3.13
2018-09-28T23:59:44.725Z,6.97
